»·PEaware :: FFT570 KSLC-KDEN

FFT570 :: KSLC-KDEN

FLIGHT INFORMATION

Flight Status: Arrived
Operator:
Frontier Airlines
More flights by this operator :: More flights under this callsign
Pilot: Ben L. (6391)
Aircraft: AIRBUS A320
(A320)
More flights by this aircraft type
Origin: KSLC Salt Lake City Intl
United States
Destination: KDEN Denver Intl
United States
More flights between these airports :: More routes between these airports
Route: RUGGD1 PERTY CHE FRNCH3
File this flight plan on PilotEdge
Remarks:
Altitude:
(Current/Filed)
35,000ft
Speed:
(Current/Filed)
450kts
Departed: 29-Oct-19 12:43 PM
Arrived: 29-Oct-19 01:47 PM
Distance/Time
Traveled:
339nm/1:04
Distance/Time
To Go:
Arrived

Flight Plot

Page will automatically refresh every two minutes.

Flight plan parsing failed; only flown route is shown


Map Options




Map Legend


Flown Route
Filed Route
Departure Airport
Arrival Airport
Navaid (VOR, NDB)
Fix

Horizontal Profiles

Position Reports

Time Latitude Longitude Heading Altitude Ground
Speed
29-Oct-19 12:08 40.784929 -111.978979 359 4236ft 0kts
29-Oct-19 12:09 40.784929 -111.978979 359 4236ft 0kts
29-Oct-19 12:10 40.784929 -111.978979 359 4236ft 0kts
29-Oct-19 12:11 40.784929 -111.978979 359 4236ft 0kts
29-Oct-19 12:12 40.784929 -111.978979 359 4236ft 0kts
29-Oct-19 12:13 40.784929 -111.978979 359 4236ft 0kts
29-Oct-19 12:14 40.784929 -111.978979 359 4236ft 0kts
29-Oct-19 12:15 40.784929 -111.978979 359 4236ft 0kts
29-Oct-19 12:16 40.784929 -111.978979 359 4236ft 0kts
29-Oct-19 12:17 40.784929 -111.978979 359 4236ft 0kts
29-Oct-19 12:18 40.784929 -111.978979 359 4236ft 0kts
29-Oct-19 12:19 40.784929 -111.978979 359 4236ft 0kts
29-Oct-19 12:20 40.784929 -111.978979 359 4236ft 0kts
29-Oct-19 12:21 40.784929 -111.978979 359 4236ft 0kts
29-Oct-19 12:22 40.784929 -111.978979 359 4236ft 0kts
29-Oct-19 12:23 40.784929 -111.978979 359 4236ft 0kts
29-Oct-19 12:24 40.784929 -111.978979 359 4236ft 0kts
29-Oct-19 12:25 40.784929 -111.978979 359 4236ft 0kts
29-Oct-19 12:26 40.784929 -111.978979 359 4236ft 0kts
29-Oct-19 12:27 40.784929 -111.978979 359 4236ft 0kts
29-Oct-19 12:28 40.784929 -111.978979 359 4236ft 0kts
29-Oct-19 12:29 40.784929 -111.978979 359 4236ft 0kts
29-Oct-19 12:30 40.784928 -111.978979 359 4236ft 0kts
29-Oct-19 12:31 40.784375 -111.978905 354 4236ft 2kts
29-Oct-19 12:32 40.783856 -111.978871 58 4236ft 1kts
29-Oct-19 12:33 40.783792 -111.978944 38 4236ft 0kts
29-Oct-19 12:34 40.783792 -111.978944 38 4236ft 0kts
29-Oct-19 12:35 40.784122 -111.977240 85 4236ft 6kts
29-Oct-19 12:36 40.780477 -111.975963 173 4236ft 22kts
29-Oct-19 12:37 40.775458 -111.974935 175 4236ft 16kts
29-Oct-19 12:38 40.774373 -111.974674 112 4236ft 0kts
29-Oct-19 12:39 40.774373 -111.974674 112 4236ft 0kts
29-Oct-19 12:40 40.774337 -111.974558 111 4236ft 0kts
29-Oct-19 12:41 40.774708 -111.973487 43 4236ft 15kts
29-Oct-19 12:42 40.798363 -111.975221 359 4535ft 161kts
29-Oct-19 12:43 40.847057 -111.975832 357 6473ft 204kts
29-Oct-19 12:44 40.911704 -111.979146 357 8846ft 247kts
29-Oct-19 12:45 40.981056 -111.982795 355 10498ft 264kts
29-Oct-19 12:46 41.059394 -111.970814 44 11834ft 331kts
29-Oct-19 12:47 41.100353 -111.867426 63 14187ft 341kts
29-Oct-19 12:48 41.118743 -111.746826 110 16305ft 361kts
29-Oct-19 12:49 41.055300 -111.636778 126 17810ft 391kts
29-Oct-19 12:50 40.985548 -111.523296 129 19315ft 411kts
29-Oct-19 12:51 40.914476 -111.403515 116 20923ft 424kts
29-Oct-19 12:52 40.892313 -111.255831 97 22251ft 436kts
29-Oct-19 12:53 40.874599 -111.105378 98 23497ft 446kts
29-Oct-19 12:54 40.855040 -110.942802 100 24728ft 457kts
29-Oct-19 12:55 40.834899 -110.777597 101 25957ft 464kts
29-Oct-19 12:56 40.813944 -110.607785 101 26976ft 475kts
29-Oct-19 12:57 40.792320 -110.434657 101 27951ft 485kts
29-Oct-19 12:58 40.770834 -110.264827 102 28798ft 493kts
29-Oct-19 12:59 40.747934 -110.086096 102 29611ft 501kts
29-Oct-19 13:00 40.732792 -109.901759 97 30345ft 511kts
29-Oct-19 13:01 40.719520 -109.715531 97 31270ft 512kts
29-Oct-19 13:02 40.705838 -109.527904 96 32159ft 514kts
29-Oct-19 13:03 40.692435 -109.348131 97 32975ft 515kts
29-Oct-19 13:04 40.678082 -109.159679 98 33696ft 517kts
29-Oct-19 13:05 40.663241 -108.969140 100 34036ft 528kts
29-Oct-19 13:06 40.648005 -108.777297 101 34851ft 526kts
29-Oct-19 13:07 40.632474 -108.586213 101 35035ft 525kts
29-Oct-19 13:08 40.616682 -108.395837 100 35009ft 527kts
29-Oct-19 13:09 40.601988 -108.221881 101 34942ft 526kts
29-Oct-19 13:10 40.585679 -108.032469 101 34952ft 525kts
29-Oct-19 13:11 40.569334 -107.846314 101 34967ft 525kts
29-Oct-19 13:12 40.552555 -107.658723 101 34981ft 525kts
29-Oct-19 13:13 40.535391 -107.470303 101 34986ft 526kts
29-Oct-19 13:14 40.519211 -107.288827 98 34962ft 528kts
29-Oct-19 13:15 40.509121 -107.096590 98 34929ft 527kts
29-Oct-19 13:16 40.498787 -106.906365 99 34899ft 529kts
29-Oct-19 13:17 40.488003 -106.713903 100 34881ft 535kts
29-Oct-19 13:18 40.476899 -106.521266 99 33965ft 541kts
29-Oct-19 13:19 40.466294 -106.340793 102 31781ft 519kts
29-Oct-19 13:20 40.455783 -106.166261 103 29417ft 466kts
29-Oct-19 13:21 40.445756 -106.006574 105 27196ft 410kts
29-Oct-19 13:22 40.426441 -105.873789 110 25657ft 346kts
29-Oct-19 13:23 40.407313 -105.753214 109 24260ft 334kts
29-Oct-19 13:24 40.388969 -105.637756 107 22250ft 321kts
29-Oct-19 13:25 40.369976 -105.519475 106 21503ft 334kts
29-Oct-19 13:26 40.342531 -105.414437 131 20843ft 284kts
29-Oct-19 13:27 40.296121 -105.341593 131 19813ft 267kts
29-Oct-19 13:28 40.247456 -105.265304 129 18600ft 287kts
29-Oct-19 13:29 40.195991 -105.184763 129 17580ft 291kts
29-Oct-19 13:30 40.143623 -105.103790 128 15717ft 295kts
29-Oct-19 13:31 40.090731 -105.020921 128 13791ft 300kts
29-Oct-19 13:32 40.039010 -104.940199 129 13052ft 276kts
29-Oct-19 13:33 39.989312 -104.862921 130 12939ft 279kts
29-Oct-19 13:34 39.929876 -104.804900 178 11936ft 283kts
29-Oct-19 13:35 39.855430 -104.807126 178 11019ft 275kts
29-Oct-19 13:36 39.785743 -104.809020 178 10993ft 240kts
29-Oct-19 13:37 39.719546 -104.811125 178 10678ft 237kts
29-Oct-19 13:38 39.654041 -104.812829 165 9966ft 236kts
29-Oct-19 13:40 39.628281 -104.745731 88 9217ft 230kts
29-Oct-19 13:41 39.641055 -104.670795 28 8418ft 214kts
29-Oct-19 13:42 39.697412 -104.662153 3 7963ft 193kts
29-Oct-19 13:43 39.747672 -104.661559 3 7031ft 157kts
29-Oct-19 13:44 39.788011 -104.661033 2 6263ft 144kts
29-Oct-19 13:45 39.827437 -104.660550 2 5460ft 131kts
29-Oct-19 13:46 39.844637 -104.660378 356 5401ft 41kts
29-Oct-19 13:47 39.850741 -104.662406 353 5395ft 15kts
29-Oct-19 13:48 39.852728 -104.666849 270 5380ft 23kts
29-Oct-19 13:49 39.852804 -104.674298 281 5380ft 5kts
29-Oct-19 13:50 39.853315 -104.674608 358 5380ft 0kts

Navigation Log

Ident Type
Flight plan parsing failed, navigation log unavailable